Главная страница
METAR-TAF:

METAR-TAF

Аэропорты :

Кусаие, Микронезия

широта: 05-21N, долгота: 162-57E, высота над уровнем моря: 3 м

Текущие метеонаблюдения

Эта сводка был подготовлена 12 часа и 27 минут назад, в 04:52 UTC
Ветер 7 Узел от северо-восточный
Температура 30°C
Влажность 75%
Давление 1009 hPa
Видимость: 16.1 км
Отдельные облака на высоте 2100 фута, мощно-кучевые.
Рассеянная облачность на высоте 13000 фута
Рассеянная облачность на высоте 30000 фута

METAR: PTSA 140452Z 05007KT 10SM SCT021TCU BKN130 BKN300 30/25 A2980 RMK TCU SW LAST

Время: 04:19 (17:19 UTC)

Прогноз

Эта сводка был подготовлена 35 часа и 41 минут назад, в 05:38 UTC
Прогноз действительный с 13-го 06 UTC до 14-го 06 UTC
Ветер 11 Узел от восточно-северо-восточный
Видимость: 10 км
Отдельные облака на высоте 2000 фута
Рассеянная облачность на высоте 12000 фута
ливни в окрестностях,

TAF: PTSA 130538Z 1306/1406 07011KT P6SM VCSH SCT020 BKN120

Метеонаблюдения и прогнозы для более 4000 аэропортов (сводки METAR и TAF).

Имеющиеся станции представлены на карте желтыми и красными точками.

Чтобы увидеть название станции, наведите на нее мышь.

Затем щелкните, чтобы увидеть метеонаблюдения и метеопрогнозы.

Управление картой: чтобы увеличить масштаб, щелкните зеленые кнопки с черным крестиком; чтобы уменьшить масштаб, щелкните зеленую кнопку с тире; для просмотра соседних карт щелкайте зеленые стрелки.


METAR-TAF: